Time;durP1;ratioP1;P1;durP2;ratioP2;P2;SDS_P1;SDS_P2;PMS_P1;PMS_P2;Temp;Humidity;BMP_temperature;BMP_pressure;BME280_temperature;BME280_humidity;BME280_pressure;Samples;Min_cycle;Max_cycle;Signal;HPM_P1;HPM_P2
2023/07/12 00:00:54;;;;;;;0.10;0.10;;;19.70;99.90;;;;;;5107404;28;20445;-86
2023/07/12 00:03:20;;;;;;;0.10;0.10;;;19.70;99.90;;;;;;5108802;28;20457;-86
2023/07/12 00:05:47;;;;;;;0.10;0.00;;;19.80;99.90;;;;;;5108167;28;20754;-85
2023/07/12 00:08:18;;;;;;;0.10;0.10;;;19.90;99.90;;;;;;5103427;28;20271;-86
2023/07/12 00:10:44;;;;;;;0.10;0.10;;;19.80;99.90;;;;;;5111733;28;20947;-86
2023/07/12 00:13:10;;;;;;;0.10;0.10;;;19.90;99.90;;;;;;5111108;28;20494;-86
2023/07/12 00:15:37;;;;;;;0.10;0.00;;;19.90;99.90;;;;;;5101835;28;20212;-86
2023/07/12 00:18:03;;;;;;;0.10;0.10;;;20.00;99.90;;;;;;5109656;28;20437;-86
2023/07/12 00:20:31;;;;;;;0.10;0.00;;;20.00;99.90;;;;;;5104921;28;20443;-85
2023/07/12 00:22:57;;;;;;;0.10;0.10;;;19.90;99.90;;;;;;5110573;28;20674;-86
2023/07/12 00:25:28;;;;;;;0.10;0.10;;;20.00;99.90;;;;;;5112030;28;20421;-86
2023/07/12 00:27:54;;;;;;;0.10;0.10;;;19.90;99.90;;;;;;5110132;28;20804;-85
2023/07/12 00:30:27;;;;;;;0.10;0.00;;;19.90;99.90;;;;;;5107783;28;20434;-85
2023/07/12 00:32:55;;;;;;;0.10;0.00;;;20.00;99.90;;;;;;5089042;28;20184;-86
2023/07/12 00:35:24;;;;;;;0.10;0.00;;;20.00;99.90;;;;;;5108114;28;20470;-86
2023/07/12 00:37:52;;;;;;;0.10;0.00;;;20.10;99.90;;;;;;5105633;28;20457;-87
2023/07/12 00:40:32;;;;;;;0.10;0.00;;;20.20;99.90;;;;;;5109343;28;20449;-86
2023/07/12 00:43:22;;;;;;;0.10;0.10;;;20.30;99.90;;;;;;5108153;28;20453;-86
2023/07/12 00:45:50;;;;;;;0.10;0.10;;;20.30;99.90;;;;;;5101298;28;20849;-87
2023/07/12 00:48:16;;;;;;;0.10;0.00;;;20.30;99.90;;;;;;5107764;28;20517;-87
2023/07/12 00:50:42;;;;;;;0.10;0.00;;;20.30;99.90;;;;;;5107178;28;20461;-87
2023/07/12 00:53:20;;;;;;;0.10;0.00;;;20.20;99.90;;;;;;5105754;28;20583;-89
2023/07/12 00:55:57;;;;;;;0.10;0.10;;;19.80;99.90;;;;;;5111513;28;20500;-90
2023/07/12 00:58:23;;;;;;;0.10;0.00;;;19.50;99.90;;;;;;5091554;28;20446;-91
2023/07/12 01:00:51;;;;;;;0.10;0.10;;;19.30;99.90;;;;;;5106826;28;20451;-94
2023/07/12 01:03:19;;;;;;;0.10;0.10;;;19.50;99.90;;;;;;5111228;28;20455;-88
2023/07/12 01:05:45;;;;;;;0.10;0.10;;;19.50;99.90;;;;;;5107931;28;20837;-89
2023/07/12 01:08:14;;;;;;;0.10;0.10;;;19.20;99.90;;;;;;5109927;28;20526;-90
2023/07/12 01:10:39;;;;;;;0.10;0.10;;;19.20;99.90;;;;;;5107292;28;20503;-88
2023/07/12 01:13:06;;;;;;;0.10;0.10;;;19.10;99.90;;;;;;5110192;28;20525;-88
2023/07/12 01:15:32;;;;;;;0.10;0.10;;;19.20;99.90;;;;;;5106923;28;20220;-88
2023/07/12 01:17:58;;;;;;;0.10;0.10;;;19.10;99.90;;;;;;5103559;28;20591;-91
2023/07/12 01:20:25;;;;;;;0.10;0.10;;;18.90;99.90;;;;;;5107916;28;20434;-90
2023/07/12 01:22:52;;;;;;;0.10;0.10;;;19.10;99.90;;;;;;5107106;28;20438;-91
2023/07/12 01:25:29;;;;;;;0.10;0.07;;;19.00;99.90;;;;;;5109019;28;20541;-90
2023/07/12 01:27:54;;;;;;;0.10;0.10;;;18.90;99.90;;;;;;5103300;28;20473;-88
2023/07/12 01:30:20;;;;;;;0.10;0.10;;;18.70;99.90;;;;;;5092107;28;20410;-88
2023/07/12 01:32:45;;;;;;;0.10;0.10;;;18.80;99.90;;;;;;5110358;28;20205;-88
2023/07/12 01:35:11;;;;;;;0.10;0.10;;;18.70;99.90;;;;;;5085461;28;20223;-88
2023/07/12 01:37:36;;;;;;;0.10;0.10;;;18.60;99.90;;;;;;5111310;28;20176;-88
2023/07/12 01:40:02;;;;;;;0.10;0.10;;;18.70;99.90;;;;;;5109929;28;20192;-87
2023/07/12 01:42:28;;;;;;;0.10;0.10;;;18.50;99.90;;;;;;5109310;28;20685;-87
2023/07/12 01:44:53;;;;;;;0.10;0.10;;;18.50;99.90;;;;;;5103288;28;20458;-88
2023/07/12 01:47:19;;;;;;;0.10;0.10;;;18.50;99.90;;;;;;5108368;28;20184;-88
2023/07/12 01:49:44;;;;;;;0.10;0.10;;;18.50;99.90;;;;;;5108481;28;20203;-89
2023/07/12 01:52:10;;;;;;;0.10;0.10;;;18.50;99.90;;;;;;5108660;28;20184;-89
2023/07/12 01:54:35;;;;;;;0.10;0.10;;;18.50;99.90;;;;;;5110325;28;20231;-90
2023/07/12 01:57:01;;;;;;;0.10;0.10;;;18.50;99.90;;;;;;5112069;28;20184;-89
2023/07/12 01:59:26;;;;;;;0.10;0.10;;;18.70;99.90;;;;;;5110712;28;20716;-89
2023/07/12 02:01:54;;;;;;;0.10;0.10;;;18.70;99.90;;;;;;5110177;28;20197;-87
2023/07/12 02:04:19;;;;;;;0.10;0.10;;;18.70;99.90;;;;;;5111366;28;20186;-88
2023/07/12 02:06:44;;;;;;;0.10;0.10;;;18.50;99.90;;;;;;5112247;28;20446;-87
2023/07/12 02:09:10;;;;;;;0.10;0.10;;;18.60;99.90;;;;;;5078095;28;20185;-89
2023/07/12 02:11:35;;;;;;;0.10;0.10;;;18.50;99.90;;;;;;5101660;28;20636;-89
2023/07/12 02:14:01;;;;;;;0.10;0.10;;;18.30;99.90;;;;;;5109793;28;20566;-88
2023/07/12 02:16:26;;;;;;;0.10;0.10;;;18.30;99.90;;;;;;5094994;28;20294;-88
2023/07/12 02:18:52;;;;;;;0.10;0.10;;;18.40;99.90;;;;;;5110187;28;20191;-88
2023/07/12 02:21:17;;;;;;;0.10;0.10;;;18.40;99.90;;;;;;5109980;28;20271;-87
2023/07/12 02:23:43;;;;;;;0.10;0.10;;;18.20;99.90;;;;;;5113740;28;20246;-88
2023/07/12 02:26:08;;;;;;;0.10;0.10;;;18.20;99.90;;;;;;5111414;28;20705;-89
2023/07/12 02:28:34;;;;;;;0.10;0.10;;;18.20;99.90;;;;;;5114084;28;20255;-88
2023/07/12 02:31:19;;;;;;;0.10;0.10;;;18.30;99.90;;;;;;5091169;28;20191;-88
2023/07/12 02:33:44;;;;;;;0.10;0.10;;;18.10;99.90;;;;;;5112356;28;20188;-88
2023/07/12 02:36:10;;;;;;;0.10;0.10;;;18.20;99.90;;;;;;5091437;28;20489;-89
2023/07/12 02:38:35;;;;;;;0.10;0.10;;;18.30;99.90;;;;;;5113520;28;20188;-90
2023/07/12 02:41:01;;;;;;;0.10;0.10;;;18.20;99.90;;;;;;5111795;28;20329;-88
2023/07/12 02:43:26;;;;;;;0.10;0.10;;;18.30;99.90;;;;;;5112320;28;20203;-88
2023/07/12 02:45:52;;;;;;;0.10;0.10;;;18.50;99.90;;;;;;5092428;28;20259;-89
2023/07/12 02:48:17;;;;;;;0.10;0.10;;;18.40;99.90;;;;;;5109992;28;20549;-88
2023/07/12 02:50:43;;;;;;;0.10;0.10;;;18.40;99.90;;;;;;5109940;28;20195;-90
2023/07/12 02:53:17;;;;;;;0.10;0.10;;;18.30;99.90;;;;;;5109246;28;20192;-89
2023/07/12 02:55:43;;;;;;;0.10;0.10;;;18.30;99.90;;;;;;5095373;28;20223;-90
2023/07/12 02:58:08;;;;;;;0.10;0.10;;;18.10;99.90;;;;;;5114209;28;20653;-90
2023/07/12 03:00:34;;;;;;;0.10;0.10;;;18.00;99.90;;;;;;5111313;28;20588;-89
2023/07/12 03:02:59;;;;;;;0.10;0.10;;;18.10;99.90;;;;;;5110347;28;20190;-87
2023/07/12 03:05:25;;;;;;;0.10;0.10;;;18.00;99.90;;;;;;5093801;28;20180;-88
2023/07/12 03:07:53;;;;;;;0.10;0.10;;;17.90;99.90;;;;;;5112674;28;20192;-87
2023/07/12 03:10:18;;;;;;;0.10;0.10;;;18.20;99.90;;;;;;5108375;27;20176;-87
2023/07/12 03:12:44;;;;;;;0.10;0.10;;;17.90;99.90;;;;;;5113283;28;20453;-86
2023/07/12 03:15:10;;;;;;;0.10;0.10;;;17.80;99.90;;;;;;5109483;28;20204;-86
2023/07/12 03:17:35;;;;;;;0.10;0.10;;;17.90;99.90;;;;;;5089472;28;20180;-87
2023/07/12 03:20:01;;;;;;;0.10;0.10;;;17.90;99.90;;;;;;5107920;28;20735;-86
2023/07/12 03:22:26;;;;;;;0.10;0.10;;;18.00;99.90;;;;;;5111731;28;20199;-87
2023/07/12 03:24:51;;;;;;;0.10;0.10;;;18.10;99.90;;;;;;5089678;28;20172;-87
2023/07/12 03:27:17;;;;;;;0.10;0.10;;;18.00;99.90;;;;;;5106222;28;20185;-87
2023/07/12 03:29:43;;;;;;;0.10;0.10;;;18.10;99.90;;;;;;5106191;28;20176;-87
2023/07/12 03:32:08;;;;;;;0.10;0.10;;;18.10;99.90;;;;;;5110542;28;20194;-87
2023/07/12 03:34:34;;;;;;;0.10;0.10;;;18.00;99.90;;;;;;5105513;28;20177;-87
2023/07/12 03:37:00;;;;;;;0.10;0.10;;;18.00;99.90;;;;;;5107037;28;20219;-87
2023/07/12 03:39:26;;;;;;;0.10;0.10;;;17.90;99.90;;;;;;5109317;28;20214;-87
2023/07/12 03:41:52;;;;;;;0.10;0.10;;;18.00;99.90;;;;;;5106173;28;20446;-87
2023/07/12 03:44:17;;;;;;;0.10;0.10;;;18.10;99.90;;;;;;5108098;28;20495;-87
2023/07/12 03:46:43;;;;;;;0.10;0.10;;;18.10;99.90;;;;;;5106965;28;20206;-86
2023/07/12 03:49:08;;;;;;;0.10;0.10;;;18.10;99.90;;;;;;5110783;28;20232;-86
2023/07/12 03:51:34;;;;;;;0.10;0.10;;;18.20;99.90;;;;;;5109213;28;20176;-86
2023/07/12 03:54:00;;;;;;;0.10;0.10;;;18.30;99.90;;;;;;5093924;28;20220;-86
2023/07/12 03:56:25;;;;;;;0.10;0.10;;;18.20;99.90;;;;;;5109928;28;20586;-86
2023/07/12 03:58:51;;;;;;;0.10;0.10;;;18.30;99.90;;;;;;5109934;28;20565;-86
2023/07/12 04:01:18;;;;;;;0.10;0.10;;;18.30;99.90;;;;;;5102040;27;20673;-87
2023/07/12 04:03:43;;;;;;;0.10;0.10;;;18.30;99.90;;;;;;5104563;28;20263;-87
2023/07/12 04:06:09;;;;;;;0.10;0.10;;;18.30;99.90;;;;;;5111978;28;20540;-88
2023/07/12 04:08:36;;;;;;;0.10;0.10;;;18.30;99.90;;;;;;5112227;28;20176;-88
2023/07/12 04:11:04;;;;;;;0.10;0.10;;;18.40;99.90;;;;;;5110537;28;21018;-87
2023/07/12 04:13:30;;;;;;;0.10;0.10;;;18.30;99.90;;;;;;5108742;28;20430;-87
2023/07/12 04:15:57;;;;;;;0.10;0.10;;;18.30;99.90;;;;;;5089085;28;21030;-87
2023/07/12 04:18:24;;;;;;;0.10;0.10;;;18.40;99.90;;;;;;5107985;28;20207;-87
2023/07/12 04:20:51;;;;;;;0.10;0.10;;;18.30;99.90;;;;;;5109262;28;20591;-87
2023/07/12 04:23:17;;;;;;;0.10;0.10;;;18.40;99.90;;;;;;5110339;28;20442;-87
2023/07/12 04:25:42;;;;;;;0.10;0.10;;;18.30;99.90;;;;;;5092282;28;20968;-86
2023/07/12 04:28:09;;;;;;;0.10;0.10;;;18.20;99.90;;;;;;5110078;28;20192;-88
2023/07/12 04:30:34;;;;;;;0.10;0.10;;;18.30;99.90;;;;;;5108819;28;20184;-88
2023/07/12 04:33:01;;;;;;;0.10;0.10;;;18.20;99.90;;;;;;5110569;28;20445;-89
2023/07/12 04:35:26;;;;;;;0.10;0.10;;;18.30;99.90;;;;;;5088161;28;20602;-86
2023/07/12 04:37:52;;;;;;;0.10;0.10;;;18.10;99.90;;;;;;5090225;28;20499;-87
2023/07/12 04:40:18;;;;;;;0.10;0.10;;;18.10;99.90;;;;;;5109814;28;20251;-87
2023/07/12 04:42:44;;;;;;;0.10;0.10;;;18.20;99.90;;;;;;5109018;28;20214;-87
2023/07/12 04:45:12;;;;;;;0.10;0.10;;;18.10;99.90;;;;;;5109761;28;20168;-86
2023/07/12 04:47:38;;;;;;;0.10;0.10;;;18.20;99.90;;;;;;5109944;28;20437;-87
2023/07/12 04:50:05;;;;;;;0.10;0.10;;;18.20;99.90;;;;;;5107863;28;20441;-87
2023/07/12 04:52:31;;;;;;;0.10;0.10;;;18.00;99.90;;;;;;5111257;28;20267;-87
2023/07/12 04:54:57;;;;;;;0.10;0.10;;;18.10;99.90;;;;;;5108745;28;20553;-87
2023/07/12 04:57:23;;;;;;;0.10;0.10;;;18.10;99.90;;;;;;5103545;28;20195;-88
2023/07/12 04:59:49;;;;;;;0.10;0.10;;;18.20;99.90;;;;;;5089747;28;20438;-88
2023/07/12 05:02:15;;;;;;;0.10;0.10;;;18.00;99.90;;;;;;5097820;28;20207;-88
2023/07/12 05:04:40;;;;;;;0.10;0.10;;;18.10;99.90;;;;;;5107104;28;20516;-88
2023/07/12 05:07:09;;;;;;;0.10;0.10;;;17.90;99.90;;;;;;5097467;28;20193;-90
2023/07/12 05:09:35;;;;;;;0.10;0.10;;;18.00;99.90;;;;;;5084877;28;20702;-90
2023/07/12 05:12:01;;;;;;;0.10;0.10;;;18.10;99.90;;;;;;5088976;28;20433;-90
2023/07/12 05:14:26;;;;;;;0.10;0.10;;;18.10;99.90;;;;;;5105682;28;20193;-90
2023/07/12 05:16:52;;;;;;;0.10;0.10;;;17.80;99.90;;;;;;5104937;28;20220;-90
2023/07/12 05:19:17;;;;;;;0.10;0.10;;;17.90;99.90;;;;;;5102850;28;20186;-90
2023/07/12 05:21:43;;;;;;;0.10;0.10;;;18.00;99.90;;;;;;5085731;28;20322;-91
2023/07/12 05:24:09;;;;;;;0.10;0.10;;;18.10;99.90;;;;;;5108218;28;20255;-91
2023/07/12 05:26:35;;;;;;;0.10;0.10;;;17.90;99.90;;;;;;5105951;28;20491;-90
2023/07/12 05:29:01;;;;;;;0.10;0.10;;;18.00;99.90;;;;;;5110072;28;20235;-92
2023/07/12 05:31:26;;;;;;;0.10;0.10;;;17.90;99.90;;;;;;5092986;28;20234;-92
2023/07/12 05:33:52;;;;;;;0.10;0.10;;;17.80;99.90;;;;;;5090024;28;20433;-89
2023/07/12 05:36:17;;;;;;;0.10;0.10;;;17.90;99.90;;;;;;5091061;28;20218;-89
2023/07/12 05:38:43;;;;;;;0.10;0.10;;;18.10;99.90;;;;;;5105611;28;20640;-92
2023/07/12 05:41:09;;;;;;;0.10;0.10;;;18.00;99.90;;;;;;5111898;28;20267;-91
2023/07/12 05:43:34;;;;;;;0.10;0.10;;;17.90;99.90;;;;;;5103065;28;20264;-93
2023/07/12 05:46:00;;;;;;;0.10;0.10;;;17.80;99.90;;;;;;5104541;28;20234;-93
2023/07/12 05:48:26;;;;;;;0.10;0.10;;;17.90;99.90;;;;;;5108725;28;20192;-91
2023/07/12 05:50:54;;;;;;;0.10;0.10;;;18.40;99.90;;;;;;5108774;28;20673;-91
2023/07/12 05:53:20;;;;;;;0.10;0.10;;;17.70;99.90;;;;;;5101696;28;20537;-91
2023/07/12 05:55:45;;;;;;;0.10;0.10;;;17.80;99.90;;;;;;5110335;28;21166;-93
2023/07/12 05:58:12;;;;;;;0.10;0.10;;;17.80;99.90;;;;;;5111111;28;20222;-91
2023/07/12 06:00:38;;;;;;;0.10;0.10;;;17.80;99.90;;;;;;5107897;28;20264;-90
2023/07/12 06:03:05;;;;;;;0.10;0.10;;;18.10;99.90;;;;;;5109996;28;20437;-92
2023/07/12 06:05:31;;;;;;;0.10;0.10;;;17.70;99.90;;;;;;5111365;28;20441;-93
2023/07/12 06:07:57;;;;;;;0.10;0.10;;;17.80;99.90;;;;;;5113557;28;20544;-93
2023/07/12 06:10:23;;;;;;;0.10;0.10;;;17.80;99.90;;;;;;5111579;28;20442;-92
2023/07/12 06:12:48;;;;;;;0.10;0.10;;;17.70;99.90;;;;;;5113314;28;20196;-91
2023/07/12 06:15:14;;;;;;;0.10;0.10;;;17.70;99.90;;;;;;5110606;28;20329;-91
2023/07/12 06:17:39;;;;;;;0.10;0.10;;;17.90;99.90;;;;;;5109779;28;20275;-88
2023/07/12 06:20:06;;;;;;;0.10;0.10;;;18.20;99.90;;;;;;5109691;28;20176;-89
2023/07/12 06:22:33;;;;;;;0.10;0.10;;;18.10;99.90;;;;;;5092544;28;20202;-92
2023/07/12 06:24:58;;;;;;;0.10;0.10;;;18.00;99.90;;;;;;5092694;28;20430;-93
2023/07/12 06:27:24;;;;;;;0.10;0.10;;;17.80;99.90;;;;;;5109570;28;20188;-92
2023/07/12 06:29:49;;;;;;;0.10;0.10;;;17.80;99.90;;;;;;5110715;28;20257;-91
2023/07/12 06:32:15;;;;;;;0.10;0.10;;;17.80;99.90;;;;;;5101027;28;20185;-90
2023/07/12 06:34:41;;;;;;;0.10;0.10;;;17.70;99.90;;;;;;5088836;28;20283;-90
2023/07/12 06:37:08;;;;;;;0.10;0.10;;;17.80;99.90;;;;;;5087379;28;20477;-89
2023/07/12 06:39:37;;;;;;;0.10;0.10;;;17.90;99.90;;;;;;5110050;28;20707;-90
2023/07/12 06:42:03;;;;;;;0.10;0.10;;;17.90;99.90;;;;;;5111211;28;20471;-90
2023/07/12 06:44:28;;;;;;;0.10;0.10;;;17.90;99.90;;;;;;5107026;28;20522;-91
2023/07/12 06:46:54;;;;;;;0.10;0.10;;;18.00;99.90;;;;;;5106255;28;20181;-91
2023/07/12 06:49:19;;;;;;;0.10;0.10;;;17.90;99.90;;;;;;5104671;28;20237;-89
2023/07/12 06:51:46;;;;;;;0.10;0.10;;;18.00;99.90;;;;;;5088063;28;20645;-88
2023/07/12 06:54:14;;;;;;;0.10;0.10;;;18.00;99.90;;;;;;5093641;28;20239;-88
2023/07/12 06:56:40;;;;;;;0.10;0.10;;;18.10;99.90;;;;;;5110535;28;20482;-88
2023/07/12 06:59:06;;;;;;;0.10;0.10;;;18.20;99.90;;;;;;5109835;28;20424;-89
2023/07/12 07:01:31;;;;;;;0.10;0.10;;;18.20;99.90;;;;;;5103504;28;20454;-88
2023/07/12 07:03:57;;;;;;;0.10;0.10;;;18.30;99.90;;;;;;5108445;28;20259;-88
2023/07/12 07:06:22;;;;;;;0.10;0.10;;;18.20;99.90;;;;;;5110116;28;20248;-88
2023/07/12 07:08:48;;;;;;;0.10;0.10;;;18.20;99.90;;;;;;5112007;28;20180;-88
2023/07/12 07:11:14;;;;;;;0.10;0.10;;;18.10;99.90;;;;;;5110275;28;20220;-89
2023/07/12 07:13:39;;;;;;;0.10;0.10;;;18.20;99.90;;;;;;5110822;28;20807;-88
2023/07/12 07:16:05;;;;;;;0.10;0.10;;;18.10;99.90;;;;;;5088073;28;20220;-87
2023/07/12 07:18:30;;;;;;;0.10;0.10;;;18.70;99.90;;;;;;5109818;28;20215;-86
2023/07/12 07:20:59;;;;;;;0.10;0.10;;;18.70;99.90;;;;;;5103369;28;20660;-87
2023/07/12 07:23:24;;;;;;;0.10;0.10;;;18.50;99.90;;;;;;5103542;28;20184;-89
2023/07/12 07:25:50;;;;;;;0.10;0.10;;;18.40;99.90;;;;;;5110561;28;20452;-87
2023/07/12 07:28:15;;;;;;;0.10;0.10;;;18.70;99.90;;;;;;5090599;28;20191;-88
2023/07/12 07:30:41;;;;;;;0.10;0.10;;;18.50;99.90;;;;;;5109366;28;20191;-87
2023/07/12 07:33:07;;;;;;;0.10;0.10;;;18.90;99.90;;;;;;5108439;28;20551;-87
2023/07/12 07:35:33;;;;;;;0.10;0.07;;;19.10;99.90;;;;;;5102855;28;20211;-84
2023/07/12 07:37:58;;;;;;;0.10;0.10;;;19.00;99.90;;;;;;5103022;28;20434;-87
2023/07/12 07:40:24;;;;;;;0.10;0.10;;;18.90;99.90;;;;;;5106145;28;20233;-86
2023/07/12 07:42:49;;;;;;;0.10;0.10;;;18.90;99.90;;;;;;5092446;28;20200;-84
2023/07/12 07:45:15;;;;;;;0.10;0.10;;;19.10;99.90;;;;;;5105976;28;20195;-89
2023/07/12 07:47:40;;;;;;;0.10;0.10;;;19.10;99.90;;;;;;5105779;27;20588;-88
2023/07/12 07:50:06;;;;;;;0.10;0.10;;;18.90;99.90;;;;;;5108823;28;20184;-88
2023/07/12 07:52:32;;;;;;;0.10;0.10;;;19.10;99.90;;;;;;5108507;28;20192;-87
2023/07/12 07:54:58;;;;;;;0.10;0.10;;;19.20;99.90;;;;;;5108185;28;20518;-88
2023/07/12 07:57:24;;;;;;;0.10;0.10;;;19.00;99.90;;;;;;5107089;28;20936;-88
2023/07/12 07:59:49;;;;;;;0.10;0.10;;;19.20;99.90;;;;;;5104256;28;20624;-85
2023/07/12 08:02:15;;;;;;;0.10;0.10;;;18.90;99.90;;;;;;5088244;28;20207;-90
2023/07/12 08:04:40;;;;;;;0.10;0.10;;;18.90;99.90;;;;;;5087848;28;20845;-95
2023/07/12 08:07:07;;;;;;;0.10;0.10;;;19.10;99.90;;;;;;5101819;28;20223;-95
2023/07/12 08:09:36;;;;;;;0.10;0.10;;;19.00;99.90;;;;;;5097601;28;20187;-93
2023/07/12 08:12:03;;;;;;;0.10;0.10;;;18.80;99.90;;;;;;5109858;28;20536;-92
2023/07/12 08:14:28;;;;;;;0.10;0.10;;;18.80;99.90;;;;;;5087712;28;20438;-91
2023/07/12 08:16:54;;;;;;;0.10;0.10;;;19.00;99.90;;;;;;5110401;28;20485;-92
2023/07/12 08:19:20;;;;;;;0.10;0.00;;;19.10;99.90;;;;;;5111407;28;20230;-96
2023/07/12 08:21:47;;;;;;;0.10;0.10;;;19.60;99.90;;;;;;5106370;28;20176;-92
2023/07/12 08:24:13;;;;;;;0.10;0.10;;;19.60;99.90;;;;;;5105266;28;20434;-96
2023/07/12 08:26:38;;;;;;;0.10;0.10;;;19.70;99.90;;;;;;5108062;28;21067;-91
2023/07/12 08:29:05;;;;;;;0.10;0.10;;;19.70;99.90;;;;;;5098972;28;20188;-88
2023/07/12 08:31:30;;;;;;;0.10;0.00;;;19.80;99.90;;;;;;5087837;28;20572;-90
2023/07/12 08:33:56;;;;;;;0.10;0.00;;;20.20;99.90;;;;;;5103588;28;20438;-90
2023/07/12 08:36:22;;;;;;;0.10;0.10;;;20.60;99.90;;;;;;5107363;28;20316;-90
2023/07/12 08:38:47;;;;;;;0.10;0.00;;;20.80;99.90;;;;;;5110789;28;21927;-89
2023/07/12 08:41:15;;;;;;;0.10;0.10;;;20.80;99.90;;;;;;5109805;28;20196;-91
2023/07/12 08:43:42;;;;;;;0.10;0.00;;;20.90;99.90;;;;;;5107110;28;20256;-91
2023/07/12 08:46:25;;;;;;;0.10;0.00;;;20.50;99.90;;;;;;5103079;28;20600;-91
2023/07/12 08:48:58;;;;;;;0.10;0.10;;;20.30;99.90;;;;;;5109799;28;20780;-92
2023/07/12 08:51:35;;;;;;;0.10;0.00;;;20.40;99.90;;;;;;5108464;28;20937;-92
2023/07/12 08:54:01;;;;;;;0.10;0.00;;;20.60;99.90;;;;;;5108119;28;20495;-92
2023/07/12 08:56:27;;;;;;;0.10;0.00;;;20.50;99.90;;;;;;5086848;28;20482;-93
2023/07/12 08:58:53;;;;;;;0.10;0.00;;;20.80;99.90;;;;;;5111160;28;20567;-93
2023/07/12 09:01:44;;;;;;;0.10;0.10;;;21.00;99.90;;;;;;5108893;28;20188;-91
2023/07/12 09:04:26;;;;;;;0.10;0.00;;;21.10;99.90;;;;;;5091337;28;20457;-93
2023/07/12 09:06:57;;;;;;;0.10;0.00;;;21.40;99.90;;;;;;5090053;28;20442;-92
2023/07/12 09:09:24;;;;;;;0.10;0.00;;;21.80;99.90;;;;;;5102566;28;20554;-93
2023/07/12 09:11:49;;;;;;;0.10;0.00;;;21.60;99.90;;;;;;5110708;28;20438;-91
2023/07/12 09:14:17;;;;;;;0.10;0.10;;;21.50;99.90;;;;;;5109470;28;20475;-90
2023/07/12 09:16:47;;;;;;;0.10;0.00;;;21.60;99.90;;;;;;5107426;28;20219;-90
2023/07/12 09:19:19;;;;;;;0.10;0.00;;;22.00;99.90;;;;;;5110068;28;20424;-89
2023/07/12 09:21:53;;;;;;;0.10;0.00;;;21.80;99.90;;;;;;5110446;28;20466;-90
2023/07/12 09:24:24;;;;;;;0.10;0.00;;;21.80;99.90;;;;;;5108264;28;20850;-88
2023/07/12 09:26:50;;;;;;;0.10;0.00;;;22.10;99.90;;;;;;5106960;28;20958;-91
2023/07/12 09:29:24;;;;;;;0.10;0.00;;;22.30;99.90;;;;;;5107569;28;20496;-92
2023/07/12 09:31:51;;;;;;;0.10;0.00;;;22.50;99.90;;;;;;5107016;28;20449;-94
2023/07/12 09:34:34;;;;;;;0.10;0.00;;;22.10;99.90;;;;;;5110619;28;20422;-90
2023/07/12 09:37:00;;;;;;;0.10;0.00;;;21.70;99.90;;;;;;5107085;28;21035;-90
2023/07/12 09:39:26;;;;;;;0.10;0.00;;;22.00;99.90;;;;;;5109432;28;20434;-92
2023/07/12 09:41:57;;;;;;;0.10;0.00;;;22.00;99.90;;;;;;5102026;28;20449;-90
2023/07/12 09:44:22;;;;;;;0.10;0.00;;;21.40;99.90;;;;;;5109900;28;20766;-92
2023/07/12 09:46:57;;;;;;;0.10;0.00;;;21.20;99.90;;;;;;5101348;28;20507;-91
2023/07/12 09:49:27;;;;;;;0.10;0.00;;;21.30;99.90;;;;;;5109934;28;20188;-91
2023/07/12 09:51:57;;;;;;;0.10;0.00;;;21.90;99.90;;;;;;5108163;28;20469;-90
2023/07/12 09:54:34;;;;;;;0.10;0.00;;;22.50;99.90;;;;;;5082361;28;20471;-92
2023/07/12 09:57:09;;;;;;;0.10;0.00;;;22.90;99.90;;;;;;5101485;28;20617;-92
2023/07/12 09:59:54;;;;;;;0.10;0.00;;;22.30;99.90;;;;;;5105192;28;20434;-94
2023/07/12 10:03:11;;;;;;;0.10;0.00;;;21.30;99.90;;;;;;5090834;28;20450;-92
2023/07/12 10:05:39;;;;;;;0.10;0.00;;;20.30;99.90;;;;;;5062863;28;20449;-94
2023/07/12 10:08:11;;;;;;;0.10;0.00;;;20.40;99.90;;;;;;5109057;28;20438;-92
2023/07/12 10:11:04;;;;;;;0.10;0.00;;;21.20;99.90;;;;;;5093953;28;20430;-91
2023/07/12 10:13:51;;;;;;;0.10;0.00;;;21.40;99.90;;;;;;5109399;28;20438;-92
2023/07/12 10:16:35;;;;;;;0.10;0.00;;;21.20;99.90;;;;;;5106614;28;20554;-91
2023/07/12 10:19:31;;;;;;;0.10;0.00;;;21.40;99.90;;;;;;5110919;28;20449;-94
2023/07/12 10:22:00;;;;;;;0.10;0.10;;;21.90;99.90;;;;;;5109075;28;20538;-94
2023/07/12 10:24:42;;;;;;;0.10;0.00;;;22.00;99.90;;;;;;5113778;28;20457;-92
2023/07/12 10:27:35;;;;;;;0.10;0.00;;;22.60;99.90;;;;;;5087605;28;20445;-92
2023/07/12 10:30:08;;;;;;;0.10;0.00;;;23.00;99.90;;;;;;5084107;28;20476;-94
2023/07/12 10:32:40;;;;;;;0.10;0.00;;;23.00;99.90;;;;;;5097911;28;20454;-95
2023/07/12 10:35:19;;;;;;;0.10;0.00;;;23.10;99.90;;;;;;5115308;28;20452;-94
2023/07/12 10:37:59;;;;;;;0.10;0.00;;;23.50;99.90;;;;;;5105562;28;20473;-93
2023/07/12 10:40:32;;;;;;;0.10;0.00;;;23.90;99.90;;;;;;5112419;28;20441;-91
2023/07/12 10:43:05;;;;;;;0.10;0.00;;;23.60;99.90;;;;;;5112882;28;20545;-95
2023/07/12 10:45:36;;;;;;;0.10;0.00;;;22.80;99.90;;;;;;5092754;28;20449;-93
2023/07/12 10:48:03;;;;;;;0.10;0.00;;;23.00;99.90;;;;;;5108595;28;20540;-94
2023/07/12 10:50:53;;;;;;;0.10;0.00;;;23.50;99.90;;;;;;5113702;28;20515;-95
2023/07/12 10:53:27;;;;;;;0.10;0.00;;;24.40;99.90;;;;;;5114351;28;20859;-95
2023/07/12 10:56:07;;;;;;;0.10;0.00;;;24.70;99.90;;;;;;5112672;28;20560;-93
2023/07/12 10:58:55;;;;;;;0.10;0.00;;;25.10;99.90;;;;;;5113509;28;20422;-96
2023/07/12 11:01:46;;;;;;;0.10;0.00;;;25.80;99.90;;;;;;5089727;28;20426;-95
2023/07/12 11:04:23;;;;;;;0.10;0.00;;;26.30;99.90;;;;;;5096006;28;20517;-96
2023/07/12 11:06:57;;;;;;;0.10;0.00;;;26.60;99.90;;;;;;5096676;28;20471;-96
2023/07/12 11:09:23;;;;;;;0.10;0.00;;;26.40;99.90;;;;;;5114454;28;20438;-93
2023/07/12 11:11:59;;;;;;;0.10;0.00;;;26.30;99.90;;;;;;5116204;28;20551;-96
2023/07/12 11:14:51;;;;;;;0.10;0.00;;;25.60;99.90;;;;;;5113270;28;20426;-96
2023/07/12 11:17:25;;;;;;;0.10;0.00;;;24.80;99.90;;;;;;5107132;28;20474;-93
2023/07/12 11:20:06;;;;;;;0.10;0.00;;;24.30;99.90;;;;;;5113949;28;20843;-94
2023/07/12 11:22:49;;;;;;;0.10;0.00;;;24.10;99.90;;;;;;5103568;28;20480;-96
2023/07/12 11:25:30;;;;;;;0.10;0.00;;;23.80;99.90;;;;;;5105386;28;20433;-91
2023/07/12 11:28:02;;;;;;;0.10;0.00;;;24.60;99.90;;;;;;5108279;28;20931;-96
2023/07/12 11:30:28;;;;;;;0.10;0.00;;;26.00;99.90;;;;;;5099279;28;20414;-96
2023/07/12 11:33:10;;;;;;;0.10;0.00;;;25.80;99.90;;;;;;5100645;28;20415;-96
2023/07/12 11:35:49;;;;;;;0.10;0.00;;;26.40;99.90;;;;;;5107950;28;20219;-96
2023/07/12 11:38:23;;;;;;;0.10;0.00;;;27.10;99.90;;;;;;5092237;28;20445;-93
2023/07/12 11:40:52;;;;;;;0.10;0.00;;;26.60;99.90;;;;;;5099103;28;20446;-94
2023/07/12 11:43:24;;;;;;;0.10;0.00;;;26.30;99.90;;;;;;5109336;28;20471;-93
2023/07/12 11:45:51;;;;;;;0.10;0.00;;;25.80;99.90;;;;;;5110612;28;20521;-96
2023/07/12 11:48:17;;;;;;;0.10;0.00;;;26.20;99.90;;;;;;5098264;28;20430;-96
2023/07/12 11:50:47;;;;;;;0.10;0.00;;;26.60;99.90;;;;;;5102781;28;20485;-96
2023/07/12 11:53:13;;;;;;;0.10;0.00;;;27.30;99.90;;;;;;5110852;28;20484;-96
2023/07/12 11:55:39;;;;;;;0.10;0.00;;;27.70;99.90;;;;;;5112498;28;20480;-96
2023/07/12 11:58:14;;;;;;;0.10;0.00;;;26.50;99.90;;;;;;5109662;28;20446;-96
2023/07/12 12:00:40;;;;;;;0.10;0.00;;;26.60;99.90;;;;;;5102031;28;20459;-96
2023/07/12 12:03:06;;;;;;;0.10;0.00;;;27.10;99.90;;;;;;5116596;28;20522;-96
2023/07/12 12:05:34;;;;;;;0.10;0.00;;;28.20;99.90;;;;;;5094777;28;20623;-93
2023/07/12 12:08:02;;;;;;;0.10;0.00;;;27.50;99.90;;;;;;5098290;28;20468;-94
2023/07/12 12:10:32;;;;;;;0.10;0.00;;;26.80;99.90;;;;;;5120572;28;20445;-96
2023/07/12 12:12:58;;;;;;;0.10;0.00;;;25.40;99.90;;;;;;5118425;28;20426;-96
2023/07/12 12:15:26;;;;;;;0.10;0.00;;;24.30;99.90;;;;;;5115368;28;20461;-95
2023/07/12 12:17:53;;;;;;;0.10;0.00;;;24.10;99.90;;;;;;5119655;28;20441;-96
2023/07/12 12:20:32;;;;;;;0.10;0.00;;;23.70;99.90;;;;;;5146831;22;20418;-96
2023/07/12 12:23:21;;;;;;;0.10;0.00;;;23.80;99.90;;;;;;5091980;28;20440;-97
2023/07/12 12:25:49;;;;;;;0.10;0.00;;;24.00;99.90;;;;;;5091503;28;20928;-96
2023/07/12 12:28:31;;;;;;;0.10;0.00;;;24.00;99.90;;;;;;5089759;28;20547;-96
2023/07/12 12:31:19;;;;;;;0.10;0.00;;;23.90;99.90;;;;;;5075989;28;20437;-96
2023/07/12 12:34:14;;;;;;;0.10;0.00;;;24.50;99.90;;;;;;5073871;28;20433;-95
2023/07/12 12:36:59;;;;;;;0.10;0.10;;;26.40;99.90;;;;;;5072512;28;20846;-95
2023/07/12 12:39:25;;;;;;;0.10;0.10;;;26.30;99.90;;;;;;5068521;28;20433;-96
2023/07/12 12:42:00;;;;;;;0.10;0.00;;;26.00;99.90;;;;;;5081460;28;20446;-92
2023/07/12 12:44:35;;;;;;;0.10;0.00;;;25.40;99.90;;;;;;5059754;28;20734;-96
2023/07/12 12:47:13;;;;;;;0.10;0.00;;;24.40;99.90;;;;;;5073477;28;20450;-96
2023/07/12 12:49:39;;;;;;;0.10;0.00;;;24.20;99.90;;;;;;5068459;28;20436;-92
2023/07/12 12:52:32;;;;;;;0.10;0.00;;;23.70;99.90;;;;;;5067056;28;20467;-94
2023/07/12 12:55:00;;;;;;;0.10;0.00;;;23.30;99.90;;;;;;5053031;28;20181;-94
2023/07/12 12:57:29;;;;;;;0.10;0.00;;;23.10;99.90;;;;;;5075802;28;20460;-96